Details for Ryanair at LEVC




Go Back


Latest METAR
Local Time

LEVC 232330Z 32004KT 9999 FEW030 04/00 Q1007 NOSIG

24/02/2018, 01:04:20

Description
Results
Ryanair Logo
Number of Pilots based at LEVC
0 Pilots Based here
Number of Ryanair Flights Departed from LEVC
3 Flights Departed
Number of Ryanair Flights Arrived at LEVC
2 Flights Arrived
Number of Ryanair Schedules Departing from LEVC
60 Schedules
Number of Ryanair Schedules Arriving at LEVC
63 Schedules
Number of Ryanair Schedules Departing from LEVC availible today
15 Schedules Today
Number of Ryanair Schedules Arriving at LEVC availible today
15 Schedules Today
Average Landing Rate at LEVC
-196 fpm
Ryanair Average Landing Rate at LEVC
-125 fpm
Total Fuel Purchased at LEVC by Ryanair
12,404.84 kgs / 27,347.71 lbs

Pilots Based at LEVC


Pilot ID
Pilot Name
Pilot Rank
No. of Flights
No. of Flying Hours
There are no pilots assigned to this hub!   Will you be the first?
Content